createdAt,value
2023-05-10T00:00:19.981Z,94544.00
2023-05-10T00:01:19.998Z,94544.00
2023-05-10T00:02:19.985Z,94542.00
2023-05-10T00:03:20.007Z,94538.00
2023-05-10T00:04:19.998Z,94540.00
2023-05-10T00:05:19.905Z,94542.00
2023-05-10T00:06:19.883Z,94544.00
2023-05-10T00:07:19.870Z,94542.00
2023-05-10T00:08:19.851Z,94540.00
2023-05-10T00:09:19.833Z,94540.00
2023-05-10T00:10:19.829Z,94542.00
2023-05-10T00:11:22.179Z,94542.00
2023-05-10T00:12:19.809Z,94544.00
2023-05-10T00:13:19.872Z,94546.00
2023-05-10T00:14:19.779Z,94542.00
2023-05-10T00:15:19.761Z,94544.00
2023-05-10T00:16:19.761Z,94546.00
2023-05-10T00:17:19.735Z,94540.00
2023-05-10T00:18:19.701Z,94542.00
2023-05-10T00:19:19.694Z,94546.00
2023-05-10T00:20:19.803Z,94546.00
2023-05-10T00:21:19.680Z,94547.00
2023-05-10T00:22:19.640Z,94549.00
2023-05-10T00:23:19.632Z,94547.00
2023-05-10T00:24:19.619Z,94549.00
2023-05-10T00:25:19.603Z,94546.00
2023-05-10T00:26:19.593Z,94547.00
2023-05-10T00:27:19.564Z,94546.00
2023-05-10T00:28:19.552Z,94546.00
2023-05-10T00:29:19.551Z,94547.00
2023-05-10T00:30:19.527Z,94551.00
2023-05-10T00:31:19.499Z,94549.00
2023-05-10T00:32:19.549Z,94551.00
2023-05-10T00:33:19.472Z,94555.00
2023-05-10T00:34:19.453Z,94553.00
2023-05-10T00:35:19.448Z,94555.00
2023-05-10T00:36:19.438Z,94551.00
2023-05-10T00:37:19.421Z,94553.00
2023-05-10T00:38:19.406Z,94555.00
2023-05-10T00:39:19.384Z,94549.00
2023-05-10T00:40:19.449Z,94549.00
2023-05-10T00:41:19.344Z,94549.00
2023-05-10T00:42:19.320Z,94549.00
2023-05-10T00:43:19.322Z,94551.00
2023-05-10T00:44:19.301Z,94551.00
2023-05-10T00:45:19.326Z,94549.00
2023-05-10T00:46:19.307Z,94551.00
2023-05-10T00:47:19.287Z,94553.00
2023-05-10T00:48:19.246Z,94551.00
2023-05-10T00:49:19.214Z,94549.00
2023-05-10T00:50:19.231Z,94557.00
2023-05-10T00:51:19.183Z,94555.00
2023-05-10T00:52:19.169Z,94557.00
2023-05-10T00:53:19.180Z,94555.00
2023-05-10T00:54:19.143Z,94549.00
2023-05-10T00:55:19.122Z,94553.00
2023-05-10T00:56:19.107Z,94555.00
2023-05-10T00:57:19.082Z,94553.00
2023-05-10T00:58:19.083Z,94553.00
2023-05-10T00:59:19.048Z,94546.00
2023-05-10T01:00:19.067Z,94547.00
2023-05-10T01:01:19.108Z,94553.00
2023-05-10T01:02:19.077Z,94553.00
2023-05-10T01:03:19.174Z,94546.00
2023-05-10T01:04:18.972Z,94551.00
2023-05-10T01:05:19.136Z,94551.00
2023-05-10T01:06:18.983Z,94551.00
2023-05-10T01:07:18.922Z,94551.00
2023-05-10T01:08:18.955Z,94553.00
2023-05-10T01:09:18.882Z,94551.00
2023-05-10T01:10:19.016Z,94553.00
2023-05-10T01:11:18.854Z,94555.00
2023-05-10T01:12:18.868Z,94555.00
2023-05-10T01:13:18.830Z,94555.00
2023-05-10T01:14:18.817Z,94559.00
2023-05-10T01:15:18.791Z,94559.00
2023-05-10T01:16:18.819Z,94555.00
2023-05-10T01:17:18.811Z,94561.00
2023-05-10T01:18:18.750Z,94561.00
2023-05-10T01:19:18.756Z,94561.00
2023-05-10T01:20:19.155Z,94557.00
2023-05-10T01:21:18.703Z,94563.00
2023-05-10T01:22:18.704Z,94559.00
2023-05-10T01:23:18.698Z,94567.00
2023-05-10T01:24:18.675Z,94563.00
2023-05-10T01:25:18.667Z,94563.00
2023-05-10T01:26:18.640Z,94571.00
2023-05-10T01:27:18.623Z,94571.00
2023-05-10T01:28:18.648Z,94571.00
2023-05-10T01:29:18.639Z,94567.00
2023-05-10T01:30:18.643Z,94573.00
2023-05-10T01:31:18.708Z,94575.00
2023-05-10T01:32:18.641Z,94571.00
2023-05-10T01:33:18.694Z,94569.00
2023-05-10T01:34:18.629Z,94569.00
2023-05-10T01:35:18.664Z,94569.00
2023-05-10T01:36:18.643Z,94567.00
2023-05-10T01:37:18.641Z,94569.00
2023-05-10T01:38:18.658Z,94567.00
2023-05-10T01:39:18.654Z,94563.00
2023-05-10T01:40:18.696Z,94563.00
2023-05-10T01:41:18.646Z,94567.00
2023-05-10T01:42:18.648Z,94565.00
2023-05-10T01:43:18.646Z,94567.00
2023-05-10T01:44:18.668Z,94571.00
2023-05-10T01:45:18.650Z,94569.00
2023-05-10T01:46:18.689Z,94567.00
2023-05-10T01:47:18.662Z,94567.00
2023-05-10T01:48:18.674Z,94567.00
2023-05-10T01:49:18.715Z,94567.00
2023-05-10T01:50:19.049Z,94565.00
2023-05-10T01:51:18.678Z,94565.00
2023-05-10T01:52:18.684Z,94563.00
2023-05-10T01:53:18.684Z,94557.00
2023-05-10T01:54:18.716Z,94559.00
2023-05-10T01:55:18.716Z,94561.00
2023-05-10T01:56:18.692Z,94559.00
2023-05-10T01:57:18.704Z,94561.00
2023-05-10T01:58:18.713Z,94557.00
2023-05-10T01:59:18.717Z,94557.00
2023-05-10T02:00:18.831Z,94555.00
2023-05-10T02:01:18.747Z,94557.00
2023-05-10T02:02:18.716Z,94555.00
2023-05-10T02:03:18.763Z,94557.00
2023-05-10T02:04:18.724Z,94555.00
2023-05-10T02:05:18.776Z,94555.00
2023-05-10T02:06:18.733Z,94559.00
2023-05-10T02:07:18.775Z,94557.00
2023-05-10T02:08:18.749Z,94557.00
2023-05-10T02:09:18.751Z,94557.00
2023-05-10T02:10:18.963Z,94555.00
2023-05-10T02:11:18.768Z,94555.00
2023-05-10T02:12:18.780Z,94557.00
2023-05-10T02:13:18.835Z,94553.00
2023-05-10T02:14:18.796Z,94559.00
2023-05-10T02:15:18.802Z,94559.00
2023-05-10T02:16:18.870Z,94559.00
2023-05-10T02:17:18.822Z,94559.00
2023-05-10T02:18:18.845Z,94561.00
2023-05-10T02:19:18.856Z,94559.00
2023-05-10T02:20:19.132Z,94557.00
2023-05-10T02:21:18.889Z,94559.00
2023-05-10T02:22:18.873Z,94559.00
2023-05-10T02:23:18.887Z,94559.00
2023-05-10T02:24:18.935Z,94559.00
2023-05-10T02:25:18.902Z,94559.00
2023-05-10T02:26:18.909Z,94561.00
2023-05-10T02:27:18.904Z,94557.00
2023-05-10T02:28:18.917Z,94559.00
2023-05-10T02:29:18.925Z,94561.00
2023-05-10T02:30:18.942Z,94563.00
2023-05-10T02:31:18.980Z,94561.00
2023-05-10T02:32:18.989Z,94561.00
2023-05-10T02:33:18.963Z,94563.00
2023-05-10T02:34:18.977Z,94563.00
2023-05-10T02:35:18.985Z,94563.00
2023-05-10T02:36:18.995Z,94561.00
2023-05-10T02:37:19.029Z,94565.00
2023-05-10T02:38:19.015Z,94563.00
2023-05-10T02:39:19.129Z,94559.00
2023-05-10T02:40:19.306Z,94561.00
2023-05-10T02:41:19.096Z,94561.00
2023-05-10T02:42:19.129Z,94563.00
2023-05-10T02:43:19.190Z,94563.00
2023-05-10T02:44:19.059Z,94565.00
2023-05-10T02:45:19.077Z,94565.00
2023-05-10T02:46:19.107Z,94567.00
2023-05-10T02:47:19.157Z,94567.00
2023-05-10T02:48:19.089Z,94567.00
2023-05-10T02:49:19.118Z,94569.00
2023-05-10T02:50:19.237Z,94567.00
2023-05-10T02:51:19.257Z,94569.00
2023-05-10T02:52:19.132Z,94569.00
2023-05-10T02:53:19.167Z,94569.00
2023-05-10T02:54:19.154Z,94571.00
2023-05-10T02:55:19.149Z,94573.00
2023-05-10T02:56:19.153Z,94571.00
2023-05-10T02:57:19.179Z,94571.00
2023-05-10T02:58:19.175Z,94575.00
2023-05-10T02:59:19.174Z,94573.00
2023-05-10T03:00:19.183Z,94577.00
2023-05-10T03:01:19.253Z,94575.00
2023-05-10T03:02:19.219Z,94577.00
2023-05-10T03:03:19.222Z,94579.00
2023-05-10T03:04:19.299Z,94579.00
2023-05-10T03:05:19.251Z,94581.00
2023-05-10T03:06:19.260Z,94585.00
2023-05-10T03:07:19.264Z,94583.00
2023-05-10T03:08:19.264Z,94583.00
2023-05-10T03:09:19.304Z,94585.00
2023-05-10T03:10:19.541Z,94583.00
2023-05-10T03:11:19.315Z,94585.00
2023-05-10T03:12:19.319Z,94585.00
2023-05-10T03:13:19.366Z,94581.00
2023-05-10T03:14:19.334Z,94585.00
2023-05-10T03:15:19.358Z,94583.00
2023-05-10T03:16:19.429Z,94583.00
2023-05-10T03:17:19.374Z,94585.00
2023-05-10T03:18:19.378Z,94581.00
2023-05-10T03:19:19.429Z,94581.00
2023-05-10T03:20:19.402Z,94579.00
2023-05-10T03:21:19.788Z,94579.00
2023-05-10T03:22:19.801Z,94579.00
2023-05-10T03:23:19.830Z,94579.00
2023-05-10T03:24:19.835Z,94577.00
2023-05-10T03:25:19.878Z,94579.00
2023-05-10T03:26:19.856Z,94581.00
2023-05-10T03:27:19.846Z,94579.00
2023-05-10T03:28:19.832Z,94583.00
2023-05-10T03:29:19.839Z,94583.00
2023-05-10T03:30:19.850Z,94583.00
2023-05-10T03:31:19.866Z,94585.00
2023-05-10T03:32:19.840Z,94585.00
2023-05-10T03:33:19.841Z,94583.00
2023-05-10T03:34:19.847Z,94585.00
2023-05-10T03:35:19.851Z,94587.00
2023-05-10T03:36:19.839Z,94585.00
2023-05-10T03:37:19.846Z,94587.00
2023-05-10T03:38:19.841Z,94585.00
2023-05-10T03:39:19.848Z,94589.00
2023-05-10T03:40:20.016Z,94587.00
2023-05-10T03:41:19.876Z,94587.00
2023-05-10T03:42:19.854Z,94589.00
2023-05-10T03:43:19.849Z,94589.00
2023-05-10T03:44:19.853Z,94591.00
2023-05-10T03:45:19.854Z,94591.00
2023-05-10T03:46:19.853Z,94591.00
2023-05-10T03:47:19.851Z,94593.00
2023-05-10T03:48:19.743Z,94593.00
2023-05-10T03:49:19.751Z,94593.00
2023-05-10T03:50:20.055Z,94593.00
2023-05-10T03:51:19.794Z,94593.00
2023-05-10T03:52:19.787Z,94596.00
2023-05-10T03:53:19.793Z,94594.00
2023-05-10T03:54:19.811Z,94596.00
2023-05-10T03:55:19.807Z,94598.00
2023-05-10T03:56:19.821Z,94600.00
2023-05-10T03:57:20.021Z,94602.00
2023-05-10T03:58:19.855Z,94600.00
2023-05-10T03:59:19.871Z,94600.00
2023-05-10T04:00:20.026Z,94600.00
2023-05-10T04:01:19.934Z,94602.00
2023-05-10T04:02:19.970Z,94602.00
2023-05-10T04:03:19.977Z,94602.00
2023-05-10T04:04:20.118Z,94600.00
2023-05-10T04:05:19.994Z,94600.00
2023-05-10T04:06:20.035Z,94600.00
2023-05-10T04:07:20.011Z,94600.00
2023-05-10T04:08:20.006Z,94602.00
2023-05-10T04:09:20.032Z,94602.00
2023-05-10T04:10:20.153Z,94602.00
2023-05-10T04:11:20.064Z,94604.00
2023-05-10T04:12:20.070Z,94602.00
2023-05-10T04:13:20.141Z,94606.00
2023-05-10T04:14:20.093Z,94604.00
2023-05-10T04:15:20.098Z,94606.00
2023-05-10T04:16:20.154Z,94606.00
2023-05-10T04:17:20.177Z,94606.00
2023-05-10T04:18:20.144Z,94608.00
2023-05-10T04:19:20.160Z,94612.00
2023-05-10T04:20:20.182Z,94610.00
2023-05-10T04:21:20.189Z,94612.00
2023-05-10T04:22:20.186Z,94612.00
2023-05-10T04:23:20.213Z,94612.00
2023-05-10T04:24:20.213Z,94616.00
2023-05-10T04:25:20.235Z,94614.00
2023-05-10T04:26:20.248Z,94614.00
2023-05-10T04:27:20.255Z,94614.00
2023-05-10T04:28:20.270Z,94616.00
2023-05-10T04:29:20.314Z,94622.00
2023-05-10T04:30:20.302Z,94620.00
2023-05-10T04:31:20.460Z,94620.00
2023-05-10T04:32:20.332Z,94620.00
2023-05-10T04:33:20.340Z,94622.00
2023-05-10T04:34:20.364Z,94622.00
2023-05-10T04:35:20.382Z,94622.00
2023-05-10T04:36:20.405Z,94624.00
2023-05-10T04:37:20.405Z,94624.00
2023-05-10T04:38:20.427Z,94626.00
2023-05-10T04:39:20.466Z,94622.00
2023-05-10T04:40:20.461Z,94626.00
2023-05-10T04:41:20.478Z,94626.00
2023-05-10T04:42:20.516Z,94622.00
2023-05-10T04:43:20.540Z,94626.00
2023-05-10T04:44:20.560Z,94626.00
2023-05-10T04:45:20.603Z,94626.00
2023-05-10T04:46:20.654Z,94626.00
2023-05-10T04:47:20.630Z,94624.00
2023-05-10T04:48:20.609Z,94626.00
2023-05-10T04:49:20.629Z,94626.00
2023-05-10T04:50:20.641Z,94626.00
2023-05-10T04:51:20.693Z,94626.00
2023-05-10T04:52:20.690Z,94626.00
2023-05-10T04:53:20.719Z,94626.00
2023-05-10T04:54:20.725Z,94626.00
2023-05-10T04:55:20.758Z,94626.00
2023-05-10T04:56:20.787Z,94626.00
2023-05-10T04:57:20.811Z,94626.00
2023-05-10T04:58:20.807Z,94628.00
2023-05-10T04:59:20.830Z,94628.00
2023-05-10T05:00:20.867Z,94628.00
2023-05-10T05:01:20.931Z,94628.00
2023-05-10T05:02:20.913Z,94630.00
2023-05-10T05:03:20.987Z,94632.00
2023-05-10T05:04:20.925Z,94630.00
2023-05-10T05:05:20.932Z,94632.00
2023-05-10T05:06:20.950Z,94634.00
2023-05-10T05:07:20.969Z,94634.00
2023-05-10T05:08:20.995Z,94634.00
2023-05-10T05:09:21.017Z,94638.00
2023-05-10T05:10:21.040Z,94638.00
2023-05-10T05:11:21.039Z,94638.00
2023-05-10T05:12:21.053Z,94638.00
2023-05-10T05:13:21.143Z,94647.00
2023-05-10T05:14:21.099Z,94647.00
2023-05-10T05:15:21.109Z,94647.00
2023-05-10T05:16:21.151Z,94647.00
2023-05-10T05:17:21.172Z,94647.00
2023-05-10T05:18:21.175Z,94647.00
2023-05-10T05:19:21.332Z,94640.00
2023-05-10T05:20:21.206Z,94640.00
2023-05-10T05:21:21.409Z,94640.00
2023-05-10T05:22:21.242Z,94640.00
2023-05-10T05:23:21.263Z,94638.00
2023-05-10T05:24:21.271Z,94638.00
2023-05-10T05:25:21.304Z,94647.00
2023-05-10T05:26:21.330Z,94649.00
2023-05-10T05:27:21.334Z,94647.00
2023-05-10T05:28:21.357Z,94649.00
2023-05-10T05:29:21.375Z,94647.00
2023-05-10T05:30:21.401Z,94640.00
2023-05-10T05:31:21.440Z,94647.00
2023-05-10T05:32:21.431Z,94647.00
2023-05-10T05:33:21.478Z,94647.00
2023-05-10T05:34:21.501Z,94647.00
2023-05-10T05:35:21.496Z,94647.00
2023-05-10T05:36:21.502Z,94649.00
2023-05-10T05:37:21.525Z,94651.00
2023-05-10T05:38:21.551Z,94653.00
2023-05-10T05:39:21.570Z,94653.00
2023-05-10T05:40:21.843Z,94655.00
2023-05-10T05:41:21.602Z,94655.00
2023-05-10T05:42:21.622Z,94659.00
2023-05-10T05:43:21.646Z,94657.00
2023-05-10T05:44:21.659Z,94655.00
2023-05-10T05:45:21.849Z,94653.00
2023-05-10T05:46:21.747Z,94653.00
2023-05-10T05:47:21.727Z,94657.00
2023-05-10T05:48:21.744Z,94661.00
2023-05-10T05:49:29.270Z,94663.00
2023-05-10T05:50:21.840Z,94663.00
2023-05-10T05:51:22.349Z,94667.00
2023-05-10T05:52:21.740Z,94665.00
2023-05-10T05:53:21.767Z,94667.00
2023-05-10T05:54:21.843Z,94667.00
2023-05-10T05:55:21.695Z,94667.00
2023-05-10T05:56:21.678Z,94669.00
2023-05-10T05:57:21.696Z,94667.00
2023-05-10T05:58:21.869Z,94667.00
2023-05-10T05:59:21.634Z,94669.00
2023-05-10T06:00:21.848Z,94667.00
2023-05-10T06:01:21.643Z,94669.00
2023-05-10T06:02:21.741Z,94671.00
2023-05-10T06:03:21.700Z,94671.00
2023-05-10T06:04:21.903Z,94671.00
2023-05-10T06:05:22.215Z,94667.00
2023-05-10T06:06:21.567Z,94669.00
2023-05-10T06:07:22.243Z,94669.00
2023-05-10T06:08:21.555Z,94671.00
2023-05-10T06:09:24.753Z,94671.00
2023-05-10T06:10:21.520Z,94669.00
2023-05-10T06:11:21.501Z,94671.00
2023-05-10T06:12:22.168Z,94671.00
2023-05-10T06:13:21.572Z,94669.00
2023-05-10T06:14:21.859Z,94673.00
2023-05-10T06:15:21.853Z,94673.00
2023-05-10T06:16:21.464Z,94671.00
2023-05-10T06:17:21.423Z,94673.00
2023-05-10T06:18:21.435Z,94673.00
2023-05-10T06:19:21.421Z,94673.00
2023-05-10T06:20:21.870Z,94673.00
2023-05-10T06:21:21.449Z,94673.00
2023-05-10T06:22:21.358Z,94675.00
2023-05-10T06:23:21.336Z,94675.00
2023-05-10T06:24:21.365Z,94677.00
2023-05-10T06:25:21.319Z,94677.00
2023-05-10T06:26:21.455Z,94679.00
2023-05-10T06:27:21.329Z,94679.00
2023-05-10T06:28:21.279Z,94679.00
2023-05-10T06:29:21.361Z,94681.00
2023-05-10T06:30:21.334Z,94681.00
2023-05-10T06:31:21.275Z,94679.00
2023-05-10T06:32:36.877Z,94679.00
2023-05-10T06:33:21.186Z,94679.00
2023-05-10T06:34:21.367Z,94681.00
2023-05-10T06:35:21.159Z,94679.00
2023-05-10T06:36:21.131Z,94683.00
2023-05-10T06:37:21.181Z,94681.00
2023-05-10T06:38:21.103Z,94681.00
2023-05-10T06:39:21.370Z,94681.00
2023-05-10T06:40:21.069Z,94683.00
2023-05-10T06:41:22.560Z,94683.00
2023-05-10T06:42:21.023Z,94681.00
2023-05-10T06:43:21.021Z,94683.00
2023-05-10T06:44:20.986Z,94685.00
2023-05-10T06:45:21.414Z,94685.00
2023-05-10T06:46:20.987Z,94687.00
2023-05-10T06:47:20.933Z,94681.00
2023-05-10T06:48:20.949Z,94685.00
2023-05-10T06:49:21.365Z,94681.00
2023-05-10T06:50:21.381Z,94681.00
2023-05-10T06:51:20.868Z,94683.00
2023-05-10T06:52:20.844Z,94683.00
2023-05-10T06:53:20.856Z,94687.00
2023-05-10T06:54:28.281Z,94685.00
2023-05-10T06:55:24.083Z,94685.00
2023-05-10T06:56:20.771Z,94685.00
2023-05-10T06:57:31.358Z,94685.00
2023-05-10T06:58:20.759Z,94685.00
2023-05-10T06:59:20.740Z,94683.00
2023-05-10T07:00:24.014Z,94689.00
2023-05-10T07:01:20.801Z,94687.00
2023-05-10T07:02:20.784Z,94687.00
2023-05-10T07:03:20.701Z,94685.00
2023-05-10T07:04:20.643Z,94685.00
2023-05-10T07:05:21.235Z,94683.00
2023-05-10T07:06:32.247Z,94683.00
2023-05-10T07:07:20.565Z,94685.00
2023-05-10T07:08:20.558Z,94685.00
2023-05-10T07:09:20.570Z,94687.00
2023-05-10T07:10:20.885Z,94689.00
2023-05-10T07:11:20.488Z,94689.00
2023-05-10T07:12:20.515Z,94691.00
2023-05-10T07:13:20.602Z,94691.00
2023-05-10T07:14:20.879Z,94691.00
2023-05-10T07:15:20.411Z,94696.00
2023-05-10T07:16:21.001Z,94691.00
2023-05-10T07:17:20.440Z,94696.00
2023-05-10T07:18:20.372Z,94696.00
2023-05-10T07:19:21.339Z,94698.00
2023-05-10T07:20:20.319Z,94694.00
2023-05-10T07:21:20.394Z,94700.00
2023-05-10T07:22:20.295Z,94700.00
2023-05-10T07:23:20.264Z,94700.00
2023-05-10T07:24:21.230Z,94702.00
2023-05-10T07:25:21.077Z,94702.00
2023-05-10T07:26:20.199Z,94702.00
2023-05-10T07:27:20.179Z,94702.00
2023-05-10T07:28:20.164Z,94706.00
2023-05-10T07:29:20.400Z,94708.00
2023-05-10T07:30:20.202Z,94708.00
2023-05-10T07:31:20.120Z,94708.00
2023-05-10T07:32:20.442Z,94708.00
2023-05-10T07:33:20.125Z,94710.00
2023-05-10T07:34:20.106Z,94708.00
2023-05-10T07:35:20.396Z,94710.00
2023-05-10T07:36:20.097Z,94710.00
2023-05-10T07:37:20.025Z,94708.00
2023-05-10T07:38:20.008Z,94710.00
2023-05-10T07:39:26.453Z,94710.00
2023-05-10T07:40:20.412Z,94710.00
2023-05-10T07:41:20.006Z,94710.00
2023-05-10T07:42:19.931Z,94710.00
2023-05-10T07:43:20.055Z,94714.00
2023-05-10T07:44:22.426Z,94712.00
2023-05-10T07:45:19.936Z,94714.00
2023-05-10T07:46:19.948Z,94712.00
2023-05-10T07:47:20.034Z,94714.00
2023-05-10T07:48:19.813Z,94712.00
2023-05-10T07:49:20.772Z,94714.00
2023-05-10T07:50:19.921Z,94714.00
2023-05-10T07:51:19.800Z,94714.00
2023-05-10T07:52:21.316Z,94714.00
2023-05-10T07:53:19.695Z,94714.00
2023-05-10T07:54:19.659Z,94716.00
2023-05-10T07:55:19.630Z,94718.00
2023-05-10T07:56:20.651Z,94720.00
2023-05-10T07:57:19.598Z,94720.00
2023-05-10T07:58:20.049Z,94722.00
2023-05-10T07:59:19.543Z,94716.00
2023-05-10T08:00:19.524Z,94720.00
2023-05-10T08:01:19.506Z,94720.00
2023-05-10T08:02:19.500Z,94718.00
2023-05-10T08:03:19.641Z,94716.00
2023-05-10T08:04:19.516Z,94720.00
2023-05-10T08:05:20.020Z,94718.00
2023-05-10T08:06:19.555Z,94720.00
2023-05-10T08:07:19.898Z,94718.00
2023-05-10T08:08:19.580Z,94722.00
2023-05-10T08:09:19.571Z,94720.00
2023-05-10T08:10:19.602Z,94720.00
2023-05-10T08:11:19.626Z,94722.00
2023-05-10T08:12:19.995Z,94722.00
2023-05-10T08:13:19.729Z,94720.00
2023-05-10T08:14:20.352Z,94720.00
2023-05-10T08:15:19.858Z,94722.00
2023-05-10T08:16:20.060Z,94720.00
2023-05-10T08:17:20.109Z,94724.00
2023-05-10T08:18:22.057Z,94724.00
2023-05-10T08:19:19.718Z,94724.00
2023-05-10T08:20:19.920Z,94726.00
2023-05-10T08:21:19.965Z,94728.00
2023-05-10T08:22:19.678Z,94728.00
2023-05-10T08:23:19.671Z,94730.00
2023-05-10T08:24:19.590Z,94730.00
2023-05-10T08:25:20.132Z,94732.00
2023-05-10T08:26:19.538Z,94732.00
2023-05-10T08:27:19.516Z,94735.00
2023-05-10T08:28:19.493Z,94733.00
2023-05-10T08:29:19.469Z,94733.00
2023-05-10T08:30:19.919Z,94737.00
2023-05-10T08:31:19.473Z,94743.00
2023-05-10T08:32:19.350Z,94743.00
2023-05-10T08:33:19.897Z,94743.00
2023-05-10T08:34:19.316Z,94743.00
2023-05-10T08:35:19.410Z,94747.00
2023-05-10T08:36:19.235Z,94743.00
2023-05-10T08:37:19.212Z,94745.00
2023-05-10T08:38:19.189Z,94749.00
2023-05-10T08:39:29.322Z,94747.00
2023-05-10T08:40:19.432Z,94747.00
2023-05-10T08:41:19.443Z,94747.00
2023-05-10T08:42:51.234Z,94747.00
2023-05-10T08:43:20.058Z,94749.00
2023-05-10T08:44:19.068Z,94751.00
2023-05-10T08:45:19.719Z,94751.00
2023-05-10T08:46:19.096Z,94747.00
2023-05-10T08:47:18.932Z,94749.00
2023-05-10T08:48:18.898Z,94747.00
2023-05-10T08:49:18.847Z,94749.00
2023-05-10T08:50:18.908Z,94749.00
2023-05-10T08:51:18.810Z,94751.00
2023-05-10T08:52:21.938Z,94751.00
2023-05-10T08:53:18.714Z,94751.00
2023-05-10T08:54:18.709Z,94753.00
2023-05-10T08:55:19.071Z,94757.00
2023-05-10T08:56:18.651Z,94757.00
2023-05-10T08:57:18.601Z,94757.00
2023-05-10T08:58:22.122Z,94759.00
2023-05-10T08:59:18.536Z,94757.00
2023-05-10T09:00:18.511Z,94759.00
2023-05-10T09:01:18.566Z,94759.00
2023-05-10T09:02:18.875Z,94761.00
2023-05-10T09:03:18.428Z,94763.00
2023-05-10T09:04:18.637Z,94763.00
2023-05-10T09:05:18.703Z,94763.00
2023-05-10T09:06:18.360Z,94765.00
2023-05-10T09:07:18.334Z,94767.00
2023-05-10T09:08:18.306Z,94765.00
2023-05-10T09:09:18.274Z,94761.00
2023-05-10T09:10:18.428Z,94761.00
2023-05-10T09:11:18.243Z,94763.00
2023-05-10T09:12:18.197Z,94765.00
2023-05-10T09:13:18.209Z,94765.00
2023-05-10T09:14:18.163Z,94763.00
2023-05-10T09:15:18.724Z,94765.00
2023-05-10T09:16:21.966Z,94769.00
2023-05-10T09:17:18.187Z,94767.00
2023-05-10T09:18:18.125Z,94763.00
2023-05-10T09:19:18.010Z,94769.00
2023-05-10T09:20:17.990Z,94767.00
2023-05-10T09:21:18.012Z,94767.00
2023-05-10T09:22:17.959Z,94769.00
2023-05-10T09:23:17.992Z,94771.00
2023-05-10T09:24:18.048Z,94773.00
2023-05-10T09:25:18.763Z,94769.00
2023-05-10T09:26:18.030Z,94771.00
2023-05-10T09:27:18.049Z,94773.00
2023-05-10T09:28:18.056Z,94775.00
2023-05-10T09:29:18.448Z,94775.00
2023-05-10T09:30:18.151Z,94775.00
2023-05-10T09:31:18.171Z,94775.00
2023-05-10T09:32:18.120Z,94771.00
2023-05-10T09:33:18.161Z,94771.00
2023-05-10T09:34:18.435Z,94773.00
2023-05-10T09:35:18.522Z,94773.00
2023-05-10T09:36:18.447Z,94771.00
2023-05-10T09:37:18.228Z,94771.00
2023-05-10T09:38:18.428Z,94771.00
2023-05-10T09:39:18.270Z,94773.00
2023-05-10T09:40:18.336Z,94771.00
2023-05-10T09:41:18.301Z,94769.00
2023-05-10T09:42:18.440Z,94771.00
2023-05-10T09:43:18.430Z,94767.00
2023-05-10T09:44:18.356Z,94767.00
2023-05-10T09:45:18.625Z,94765.00
2023-05-10T09:46:18.431Z,94765.00
2023-05-10T09:47:18.455Z,94763.00
2023-05-10T09:48:18.445Z,94765.00
2023-05-10T09:49:18.489Z,94763.00
2023-05-10T09:50:18.532Z,94767.00
2023-05-10T09:51:18.507Z,94765.00
2023-05-10T09:52:18.524Z,94765.00
2023-05-10T09:53:18.538Z,94763.00
2023-05-10T09:54:18.965Z,94769.00
2023-05-10T09:55:18.725Z,94769.00
2023-05-10T09:56:26.043Z,94769.00
2023-05-10T09:57:18.578Z,94771.00
2023-05-10T09:58:18.553Z,94771.00
2023-05-10T09:59:18.520Z,94771.00
2023-05-10T10:00:18.519Z,94771.00
2023-05-10T10:01:18.966Z,94771.00
2023-05-10T10:02:19.433Z,94769.00
2023-05-10T10:03:18.492Z,94767.00
2023-05-10T10:04:18.419Z,94769.00
2023-05-10T10:05:18.625Z,94765.00
2023-05-10T10:06:29.125Z,94769.00
2023-05-10T10:07:18.284Z,94769.00
2023-05-10T10:08:18.436Z,94769.00
2023-05-10T10:09:18.226Z,94767.00
2023-05-10T10:10:18.447Z,94765.00
2023-05-10T10:11:18.169Z,94765.00
2023-05-10T10:12:18.151Z,94761.00
2023-05-10T10:13:18.124Z,94761.00
2023-05-10T10:14:18.079Z,94761.00
2023-05-10T10:15:18.579Z,94761.00
2023-05-10T10:16:18.526Z,94763.00
2023-05-10T10:17:17.993Z,94763.00
2023-05-10T10:18:18.000Z,94761.00
2023-05-10T10:19:17.948Z,94765.00
2023-05-10T10:20:18.206Z,94765.00
2023-05-10T10:21:18.005Z,94765.00
2023-05-10T10:22:17.860Z,94765.00
2023-05-10T10:23:18.040Z,94765.00
2023-05-10T10:24:17.817Z,94767.00
2023-05-10T10:25:18.387Z,94769.00
2023-05-10T10:26:17.962Z,94771.00
2023-05-10T10:27:17.739Z,94773.00
2023-05-10T10:28:17.715Z,94769.00
2023-05-10T10:29:18.714Z,94771.00
2023-05-10T10:30:17.752Z,94773.00
2023-05-10T10:31:18.589Z,94771.00
2023-05-10T10:32:17.791Z,94771.00
2023-05-10T10:33:27.868Z,94773.00
2023-05-10T10:34:17.771Z,94777.00
2023-05-10T10:35:17.969Z,94775.00
2023-05-10T10:36:18.115Z,94771.00
2023-05-10T10:37:17.707Z,94777.00
2023-05-10T10:38:17.646Z,94777.00
2023-05-10T10:39:17.985Z,94775.00
2023-05-10T10:40:17.597Z,94773.00
2023-05-10T10:41:17.571Z,94775.00
2023-05-10T10:42:17.533Z,94771.00
2023-05-10T10:43:17.517Z,94773.00
2023-05-10T10:44:18.130Z,94773.00
2023-05-10T10:45:17.628Z,94773.00
2023-05-10T10:46:17.446Z,94773.00
2023-05-10T10:47:17.383Z,94775.00
2023-05-10T10:48:17.347Z,94775.00
2023-05-10T10:49:17.320Z,94775.00
2023-05-10T10:50:17.351Z,94775.00
2023-05-10T10:51:17.458Z,94775.00
2023-05-10T10:52:17.213Z,94777.00
2023-05-10T10:53:17.218Z,94775.00
2023-05-10T10:54:17.123Z,94773.00
2023-05-10T10:55:17.290Z,94775.00
2023-05-10T10:56:17.048Z,94773.00
2023-05-10T10:57:17.120Z,94773.00
2023-05-10T10:58:16.968Z,94773.00
2023-05-10T10:59:16.941Z,94773.00
2023-05-10T11:00:16.890Z,94773.00
2023-05-10T11:01:16.911Z,94771.00
2023-05-10T11:02:16.809Z,94771.00
2023-05-10T11:03:16.795Z,94767.00
2023-05-10T11:04:17.122Z,94767.00
2023-05-10T11:05:17.258Z,94763.00
2023-05-10T11:06:16.685Z,94763.00
2023-05-10T11:07:16.632Z,94765.00
2023-05-10T11:08:16.591Z,94759.00
2023-05-10T11:09:16.573Z,94761.00
2023-05-10T11:10:17.118Z,94757.00
2023-05-10T11:11:16.489Z,94761.00
2023-05-10T11:12:16.439Z,94759.00
2023-05-10T11:13:16.403Z,94757.00
2023-05-10T11:14:16.359Z,94759.00
2023-05-10T11:15:16.529Z,94757.00
2023-05-10T11:16:16.317Z,94755.00
2023-05-10T11:17:16.309Z,94755.00
2023-05-10T11:18:16.257Z,94753.00
2023-05-10T11:19:16.237Z,94749.00
2023-05-10T11:20:16.611Z,94753.00
2023-05-10T11:21:16.170Z,94755.00
2023-05-10T11:22:16.138Z,94753.00
2023-05-10T11:23:16.124Z,94755.00
2023-05-10T11:24:16.109Z,94755.00
2023-05-10T11:25:17.093Z,94757.00
2023-05-10T11:26:16.051Z,94749.00
2023-05-10T11:27:16.013Z,94753.00
2023-05-10T11:28:16.004Z,94751.00
2023-05-10T11:29:15.986Z,94747.00
2023-05-10T11:30:16.292Z,94747.00
2023-05-10T11:31:16.006Z,94749.00
2023-05-10T11:32:15.917Z,94747.00
2023-05-10T11:33:15.898Z,94749.00
2023-05-10T11:34:15.884Z,94751.00
2023-05-10T11:35:15.870Z,94747.00
2023-05-10T11:36:16.464Z,94747.00
2023-05-10T11:37:15.839Z,94743.00
2023-05-10T11:38:15.827Z,94745.00
2023-05-10T11:39:15.809Z,94745.00
2023-05-10T11:40:16.088Z,94747.00
2023-05-10T11:41:15.823Z,94743.00
2023-05-10T11:42:15.773Z,94741.00
2023-05-10T11:43:15.989Z,94741.00
2023-05-10T11:44:15.742Z,94747.00